createdAt,value
2023-05-05T00:00:08.914Z,101311.81
2023-05-05T00:02:36.785Z,101303.28
2023-05-05T00:05:04.729Z,101311.34
2023-05-05T00:07:35.296Z,101310.19
2023-05-05T00:10:02.839Z,101310.16
2023-05-05T00:12:36.623Z,101318.22
2023-05-05T00:15:04.559Z,101306.91
2023-05-05T00:17:34.561Z,101310.53
2023-05-05T00:20:02.157Z,101304.88
2023-05-05T00:22:32.873Z,101304.88
2023-05-05T00:25:01.657Z,101305.69
2023-05-05T00:27:32.030Z,101302.03
2023-05-05T00:29:59.636Z,101302.03
2023-05-05T00:32:27.406Z,101309.31
2023-05-05T00:34:55.140Z,101299.63
2023-05-05T00:37:23.172Z,101303.25
2023-05-05T00:39:50.913Z,101309.72
2023-05-05T00:42:21.377Z,101297.59
2023-05-05T00:44:48.908Z,101291.53
2023-05-05T00:47:17.197Z,101294.34
2023-05-05T00:49:47.904Z,101302.44
2023-05-05T00:52:18.076Z,101291.91
2023-05-05T00:54:45.793Z,101284.22
2023-05-05T00:57:17.258Z,101287.84
2023-05-05T00:59:55.968Z,101282.16
2023-05-05T01:02:23.633Z,101282.59
2023-05-05T01:04:54.166Z,101283.41
2023-05-05T01:07:43.321Z,101280.59
2023-05-05T01:10:23.995Z,101271.69
2023-05-05T01:13:15.741Z,101278.56
2023-05-05T01:16:10.510Z,101265.25
2023-05-05T01:18:46.450Z,101268.88
2023-05-05T01:21:15.916Z,101264.06
2023-05-05T01:23:59.404Z,101263.66
2023-05-05T01:26:47.999Z,101260.38
2023-05-05T01:29:41.240Z,101266.88
2023-05-05T01:32:14.898Z,101261.63
2023-05-05T01:34:53.141Z,101265.25
2023-05-05T01:37:30.303Z,101263.66
2023-05-05T01:40:06.701Z,101259.59
2023-05-05T01:42:41.244Z,101257.19
2023-05-05T01:45:15.622Z,101260.03
2023-05-05T01:47:46.989Z,101261.72
2023-05-05T01:50:18.372Z,101258.81
2023-05-05T01:52:53.766Z,101261.28
2023-05-05T01:55:25.513Z,101245.50
2023-05-05T01:57:56.890Z,101255.19
2023-05-05T02:00:27.878Z,101258.03
2023-05-05T02:02:59.977Z,101260.47
2023-05-05T02:05:36.555Z,101253.59
2023-05-05T02:08:06.550Z,101252.34
2023-05-05T02:10:40.564Z,101253.16
2023-05-05T02:13:10.494Z,101251.19
2023-05-05T02:15:42.664Z,101253.16
2023-05-05T02:18:11.469Z,101260.47
2023-05-05T02:20:39.993Z,101250.75
2023-05-05T02:23:10.969Z,101253.59
2023-05-05T02:25:50.484Z,101252.75
2023-05-05T02:28:26.119Z,101245.84
2023-05-05T02:30:59.406Z,101249.44
2023-05-05T02:33:32.607Z,101250.59
2023-05-05T02:36:11.723Z,101245.72
2023-05-05T02:38:54.517Z,101243.31
2023-05-05T02:41:28.421Z,101240.44
2023-05-05T02:44:00.773Z,101241.66
2023-05-05T02:46:31.043Z,101240.44
2023-05-05T02:48:59.776Z,101241.66
2023-05-05T02:51:33.653Z,101236.38
2023-05-05T02:54:07.989Z,101237.97
2023-05-05T02:56:43.070Z,101234.75
2023-05-05T02:59:16.727Z,101240.78
2023-05-05T03:02:03.412Z,101246.88
2023-05-05T03:04:45.934Z,101246.03
2023-05-05T03:07:23.770Z,101237.13
2023-05-05T03:09:56.201Z,101240.75
2023-05-05T03:12:28.964Z,101229.00
2023-05-05T03:15:08.666Z,101229.00
2023-05-05T03:17:39.673Z,101237.09
2023-05-05T03:20:08.687Z,101226.16
2023-05-05T03:22:43.201Z,101235.06
2023-05-05T03:25:13.999Z,101235.09
2023-05-05T03:27:42.049Z,101234.66
2023-05-05T03:30:13.444Z,101234.28
2023-05-05T03:32:48.437Z,101238.34
2023-05-05T03:35:21.190Z,101229.78
2023-05-05T03:37:51.379Z,101233.47
2023-05-05T03:40:19.336Z,101221.31
2023-05-05T03:42:50.499Z,101223.72
2023-05-05T03:45:18.238Z,101225.34
2023-05-05T03:47:46.037Z,101220.47
2023-05-05T03:50:13.647Z,101229.41
2023-05-05T03:52:46.535Z,101226.94
2023-05-05T03:55:14.066Z,101222.50
2023-05-05T03:57:46.015Z,101223.72
2023-05-05T04:00:16.787Z,101224.88
2023-05-05T04:02:47.216Z,101231.41
2023-05-05T04:05:19.905Z,101222.44
2023-05-05T04:07:47.801Z,101221.25
2023-05-05T04:10:16.647Z,101219.22
2023-05-05T04:12:44.471Z,101219.59
2023-05-05T04:15:12.371Z,101218.00
2023-05-05T04:17:43.698Z,101225.31
2023-05-05T04:20:13.568Z,101217.25
2023-05-05T04:22:43.888Z,101226.13
2023-05-05T04:25:14.184Z,101219.25
2023-05-05T04:27:44.292Z,101220.81
2023-05-05T04:30:15.343Z,101226.53
2023-05-05T04:32:46.539Z,101226.13
2023-05-05T04:35:16.470Z,101226.94
2023-05-05T04:37:44.598Z,101229.78
2023-05-05T04:40:15.565Z,101221.31
2023-05-05T04:42:43.198Z,101228.19
2023-05-05T04:45:17.772Z,101231.00
2023-05-05T04:47:46.606Z,101228.59
2023-05-05T04:50:16.996Z,101226.19
2023-05-05T04:52:47.652Z,101227.41
2023-05-05T04:55:20.553Z,101226.19
2023-05-05T04:57:49.331Z,101225.38
2023-05-05T05:00:22.334Z,101225.38
2023-05-05T05:02:49.962Z,101225.78
2023-05-05T05:05:20.077Z,101231.44
2023-05-05T05:07:48.069Z,101238.34
2023-05-05T05:10:18.352Z,101240.34
2023-05-05T05:12:48.062Z,101239.94
2023-05-05T05:15:18.784Z,101239.13
2023-05-05T05:17:48.928Z,101237.53
2023-05-05T05:20:20.002Z,101241.56
2023-05-05T05:22:57.505Z,101239.97
2023-05-05T05:25:27.776Z,101240.34
2023-05-05T05:28:08.797Z,101244.03
2023-05-05T05:30:43.019Z,101244.84
2023-05-05T05:33:21.245Z,101248.13
2023-05-05T05:35:52.266Z,101244.88
2023-05-05T05:38:30.224Z,101242.84
2023-05-05T05:41:07.713Z,101251.00
2023-05-05T05:43:44.776Z,101243.25
2023-05-05T05:46:15.987Z,101250.53
2023-05-05T05:48:46.980Z,101247.72
2023-05-05T05:51:14.806Z,101245.34
2023-05-05T05:53:50.036Z,101245.78
2023-05-05T05:56:27.096Z,101243.31
2023-05-05T05:59:01.631Z,101241.31
2023-05-05T06:01:37.753Z,101242.19
2023-05-05T06:04:14.097Z,101254.34
2023-05-05T06:06:46.978Z,101246.22
2023-05-05T06:09:17.446Z,101254.00
2023-05-05T06:11:47.198Z,101254.06
2023-05-05T06:14:16.638Z,101249.59
2023-05-05T06:16:46.384Z,101250.41
2023-05-05T06:19:18.286Z,101249.25
2023-05-05T06:21:52.341Z,101249.38
2023-05-05T06:24:23.372Z,101253.56
2023-05-05T06:26:53.362Z,101261.75
2023-05-05T06:29:26.944Z,101253.22
2023-05-05T06:32:01.380Z,101252.78
2023-05-05T06:34:29.260Z,101244.41
2023-05-05T06:37:04.324Z,101256.16
2023-05-05T06:39:37.400Z,101252.72
2023-05-05T06:42:16.021Z,101256.47
2023-05-05T06:44:54.180Z,101263.53
2023-05-05T06:47:36.089Z,101263.56
2023-05-05T06:50:12.347Z,101266.38
2023-05-05T06:52:50.032Z,101255.88
2023-05-05T06:55:32.393Z,101256.66
2023-05-05T06:58:14.017Z,101264.44
2023-05-05T07:00:48.084Z,101263.69
2023-05-05T07:03:35.748Z,101257.53
2023-05-05T07:06:10.483Z,101272.25
2023-05-05T07:08:46.778Z,101261.25
2023-05-05T07:11:20.750Z,101269.81
2023-05-05T07:13:49.490Z,101266.94
2023-05-05T07:16:18.406Z,101264.91
2023-05-05T07:18:56.987Z,101266.16
2023-05-05T07:21:28.045Z,101266.50
2023-05-05T07:23:59.025Z,101269.72
2023-05-05T07:26:30.037Z,101268.16
2023-05-05T07:29:10.415Z,101271.00
2023-05-05T07:31:43.826Z,101264.03
2023-05-05T07:34:25.559Z,101252.50
2023-05-05T07:37:04.375Z,101268.47
2023-05-05T07:39:42.248Z,101256.16
2023-05-05T07:42:23.130Z,101257.00
2023-05-05T07:44:56.553Z,101261.09
2023-05-05T07:47:34.493Z,101266.81
2023-05-05T07:50:10.825Z,101255.56
2023-05-05T07:52:50.018Z,101257.66
2023-05-05T07:55:26.597Z,101263.34
2023-05-05T07:58:03.871Z,101254.06
2023-05-05T08:00:39.663Z,101258.91
2023-05-05T08:03:21.313Z,101249.16
2023-05-05T08:05:51.619Z,101249.97
2023-05-05T08:08:25.250Z,101245.50
2023-05-05T08:10:53.473Z,101246.31
2023-05-05T08:13:29.362Z,101238.19
2023-05-05T08:16:06.075Z,101245.09
2023-05-05T08:18:39.064Z,101245.09
2023-05-05T08:21:08.119Z,101243.88
2023-05-05T08:23:39.149Z,101254.38
2023-05-05T08:26:20.996Z,101244.69
2023-05-05T08:29:05.267Z,101253.63
2023-05-05T08:31:37.256Z,101250.38
2023-05-05T08:34:16.129Z,101246.31
2023-05-05T08:36:49.191Z,101252.78
2023-05-05T08:39:19.996Z,101242.25
2023-05-05T08:41:50.586Z,101247.53
2023-05-05T08:44:20.954Z,101244.69
2023-05-05T08:46:53.448Z,101247.13
2023-05-05T08:49:31.177Z,101250.38
2023-05-05T08:52:07.813Z,101251.56
2023-05-05T08:54:43.253Z,101255.19
2023-05-05T08:57:19.383Z,101250.72
2023-05-05T08:59:51.723Z,101249.47
2023-05-05T09:02:25.629Z,101250.25
2023-05-05T09:04:56.577Z,101249.47
2023-05-05T09:07:30.499Z,101247.47
2023-05-05T09:10:06.898Z,101247.47
2023-05-05T09:12:38.429Z,101250.75
2023-05-05T09:15:15.465Z,101254.00
2023-05-05T09:17:46.025Z,101247.44
2023-05-05T09:20:17.481Z,101246.69
2023-05-05T09:22:54.110Z,101249.13
2023-05-05T09:25:24.729Z,101244.66
2023-05-05T09:27:55.170Z,101237.31
2023-05-05T09:30:29.080Z,101238.97
2023-05-05T09:33:02.502Z,101239.34
2023-05-05T09:35:54.853Z,101237.31
2023-05-05T09:38:27.447Z,101230.41
2023-05-05T09:41:04.201Z,101235.28
2023-05-05T09:43:54.968Z,101229.66
2023-05-05T09:46:36.085Z,101223.59
2023-05-05T09:49:25.670Z,101219.56
2023-05-05T09:52:21.713Z,101223.22
2023-05-05T09:54:58.562Z,101221.13
2023-05-05T09:57:31.973Z,101218.63
2023-05-05T10:00:08.843Z,101222.31
2023-05-05T10:02:41.035Z,101216.22
2023-05-05T10:05:18.555Z,101213.44
2023-05-05T10:07:49.702Z,101214.28
2023-05-05T10:10:27.535Z,101208.97
2023-05-05T10:13:03.874Z,101208.19
2023-05-05T10:15:37.432Z,101206.94
2023-05-05T10:18:15.060Z,101207.78
2023-05-05T10:20:49.340Z,101204.94
2023-05-05T10:23:27.093Z,101202.50
2023-05-05T10:26:03.898Z,101202.50
2023-05-05T10:28:42.924Z,101200.50
2023-05-05T10:31:26.418Z,101194.78
2023-05-05T10:34:17.440Z,101194.41
2023-05-05T10:36:45.800Z,101192.38
2023-05-05T10:39:16.756Z,101194.81
2023-05-05T10:41:46.573Z,101190.75
2023-05-05T10:44:21.823Z,101187.53
2023-05-05T10:46:54.870Z,101178.19
2023-05-05T10:49:38.595Z,101181.84
2023-05-05T10:52:15.392Z,101176.56
2023-05-05T10:55:02.074Z,101168.06
2023-05-05T10:57:41.525Z,101167.66
2023-05-05T11:00:41.397Z,101165.22
2023-05-05T11:03:18.465Z,101158.31
2023-05-05T11:06:08.060Z,101151.44
2023-05-05T11:08:43.001Z,101152.22
2023-05-05T11:11:11.955Z,101150.22
2023-05-05T11:13:43.937Z,101147.78
2023-05-05T11:16:46.797Z,101150.22
2023-05-05T11:19:44.919Z,101151.84
2023-05-05T11:22:26.642Z,101138.06
2023-05-05T11:24:56.471Z,101136.03
2023-05-05T11:28:07.149Z,101134.00
2023-05-05T11:30:55.159Z,101122.25
2023-05-05T11:33:46.796Z,101122.25
2023-05-05T11:36:20.080Z,101125.06
2023-05-05T11:39:07.036Z,101118.97
2023-05-05T11:42:11.193Z,101119.78
2023-05-05T11:44:47.913Z,101108.44
2023-05-05T11:47:15.397Z,101110.47
2023-05-05T11:49:46.294Z,101108.44
2023-05-05T11:52:17.822Z,101106.81
2023-05-05T11:54:53.790Z,101104.78
2023-05-05T11:57:30.473Z,101105.59
2023-05-05T12:00:09.680Z,101097.06
2023-05-05T12:02:44.094Z,101097.47
2023-05-05T12:05:21.989Z,101106.00
2023-05-05T12:07:58.718Z,101094.63
2023-05-05T12:10:34.229Z,101082.44
2023-05-05T12:13:04.337Z,101086.53
2023-05-05T12:15:41.713Z,101084.50
2023-05-05T12:18:21.622Z,101089.75
2023-05-05T12:20:53.053Z,101079.66
2023-05-05T12:23:21.492Z,101082.06
2023-05-05T12:25:50.137Z,101078.41
2023-05-05T12:28:23.083Z,101069.91
2023-05-05T12:30:59.129Z,101072.34
2023-05-05T12:33:39.096Z,101071.91
2023-05-05T12:36:08.909Z,101065.03
2023-05-05T12:38:42.471Z,101067.88
2023-05-05T12:41:10.864Z,101063.78
2023-05-05T12:43:39.944Z,101067.84
2023-05-05T12:46:14.122Z,101054.03
2023-05-05T12:48:48.195Z,101053.22
2023-05-05T12:51:24.005Z,101051.22
2023-05-05T12:54:07.578Z,101043.91
2023-05-05T12:56:41.626Z,101042.69
2023-05-05T12:59:13.105Z,101039.03
2023-05-05T13:01:53.588Z,101034.97
2023-05-05T13:04:26.602Z,101041.88
2023-05-05T13:07:08.699Z,101032.94
2023-05-05T13:09:41.592Z,101027.66
2023-05-05T13:12:15.446Z,101030.09
2023-05-05T13:14:50.568Z,101022.81
2023-05-05T13:17:20.673Z,101024.06
2023-05-05T13:19:54.288Z,101014.72
2023-05-05T13:22:24.962Z,101017.16
2023-05-05T13:25:06.042Z,101015.94
2023-05-05T13:27:37.571Z,101012.28
2023-05-05T13:30:18.562Z,101012.28
2023-05-05T13:32:51.204Z,101009.03
2023-05-05T13:35:25.007Z,101004.13
2023-05-05T13:37:55.865Z,101002.91
2023-05-05T13:40:25.737Z,101006.13
2023-05-05T13:42:56.157Z,100992.38
2023-05-05T13:45:25.504Z,100992.78
2023-05-05T13:47:59.512Z,100987.50
2023-05-05T13:50:35.122Z,100992.41
2023-05-05T13:53:05.833Z,100989.16
2023-05-05T13:55:39.272Z,100980.16
2023-05-05T13:58:13.653Z,100982.75
2023-05-05T14:00:41.372Z,100983.31
2023-05-05T14:03:12.547Z,100973.69
2023-05-05T14:05:48.206Z,100975.13
2023-05-05T14:08:22.757Z,100970.38
2023-05-05T14:10:52.165Z,100963.25
2023-05-05T14:13:20.516Z,100965.47
2023-05-05T14:15:50.474Z,100967.88
2023-05-05T14:18:21.330Z,100961.97
2023-05-05T14:20:51.804Z,100960.78
2023-05-05T14:23:22.572Z,100959.38
2023-05-05T14:25:55.489Z,100962.13
2023-05-05T14:28:32.099Z,100952.25
2023-05-05T14:31:03.209Z,100956.84
2023-05-05T14:33:36.016Z,100959.38
2023-05-05T14:36:07.209Z,100955.59
2023-05-05T14:38:35.589Z,100951.53
2023-05-05T14:41:11.194Z,100954.13
2023-05-05T14:43:46.699Z,100947.38
2023-05-05T14:46:19.107Z,100943.75
2023-05-05T14:48:53.946Z,100945.53
2023-05-05T14:51:24.415Z,100945.88
2023-05-05T14:53:57.682Z,100943.25
2023-05-05T14:56:34.516Z,100943.00
2023-05-05T14:59:09.970Z,100943.25
2023-05-05T15:01:43.785Z,100941.63
2023-05-05T15:04:19.055Z,100947.94
2023-05-05T15:06:55.684Z,100944.88
2023-05-05T15:09:29.328Z,100947.81
2023-05-05T15:12:02.704Z,100951.84
2023-05-05T15:14:33.291Z,100945.91
2023-05-05T15:17:03.849Z,100950.88
2023-05-05T15:19:38.141Z,100940.34
2023-05-05T15:22:12.020Z,100937.22
2023-05-05T15:24:47.333Z,100936.94
2023-05-05T15:27:23.117Z,100932.13
2023-05-05T15:30:03.751Z,100933.84
2023-05-05T15:32:37.111Z,100931.75
2023-05-05T15:35:08.932Z,100931.78
2023-05-05T15:37:42.854Z,100923.19
2023-05-05T15:40:13.119Z,100922.47
2023-05-05T15:42:46.494Z,100917.97
2023-05-05T15:45:22.723Z,100918.41
2023-05-05T15:47:51.136Z,100913.13
2023-05-05T15:50:20.221Z,100911.53
2023-05-05T15:52:50.725Z,100909.13
2023-05-05T15:55:21.442Z,100909.59
2023-05-05T15:57:54.837Z,100908.34
2023-05-05T16:00:32.026Z,100906.75
2023-05-05T16:03:03.580Z,100906.75
2023-05-05T16:05:31.449Z,100905.13
2023-05-05T16:08:01.856Z,100902.28
2023-05-05T16:10:38.349Z,100904.31
2023-05-05T16:13:06.369Z,100889.72
2023-05-05T16:15:36.967Z,100903.16
2023-05-05T16:18:04.554Z,100897.88
2023-05-05T16:20:39.815Z,100900.41
2023-05-05T16:23:10.462Z,100901.63
2023-05-05T16:25:44.944Z,100900.31
2023-05-05T16:28:15.497Z,100895.13
2023-05-05T16:30:43.605Z,100894.34
2023-05-05T16:33:11.478Z,100887.53
2023-05-05T16:35:40.121Z,100887.16
2023-05-05T16:38:10.104Z,100890.75
2023-05-05T16:40:43.847Z,100887.53
2023-05-05T16:43:19.732Z,100889.19
2023-05-05T16:45:52.769Z,100882.28
2023-05-05T16:48:28.667Z,100882.25
2023-05-05T16:51:04.509Z,100880.97
2023-05-05T16:53:48.264Z,100873.66
2023-05-05T16:56:19.678Z,100877.72
2023-05-05T16:58:54.373Z,100879.41
2023-05-05T17:01:35.300Z,100871.66
2023-05-05T17:04:08.125Z,100873.69
2023-05-05T17:06:42.926Z,100869.25
2023-05-05T17:09:16.175Z,100862.31
2023-05-05T17:11:44.052Z,100859.47
2023-05-05T17:14:19.333Z,100864.75
2023-05-05T17:16:54.415Z,100862.34
2023-05-05T17:19:28.232Z,100863.16
2023-05-05T17:21:58.715Z,100865.59
2023-05-05T17:24:37.306Z,100857.91
2023-05-05T17:27:12.752Z,100864.81
2023-05-05T17:29:45.650Z,100865.22
2023-05-05T17:32:18.191Z,100867.66
2023-05-05T17:34:56.949Z,100873.34
2023-05-05T17:37:32.241Z,100875.38
2023-05-05T17:40:05.092Z,100872.53
2023-05-05T17:42:40.596Z,100867.28
2023-05-05T17:45:11.748Z,100879.06
2023-05-05T17:47:47.824Z,100880.66
2023-05-05T17:50:20.921Z,100881.09
2023-05-05T17:53:01.197Z,100877.47
2023-05-05T17:55:37.328Z,100888.84
2023-05-05T17:58:21.761Z,100880.31
2023-05-05T18:00:52.367Z,100887.59
2023-05-05T18:03:31.335Z,100886.81
2023-05-05T18:06:07.871Z,100881.94
2023-05-05T18:08:38.570Z,100887.19
2023-05-05T18:11:21.356Z,100891.72
2023-05-05T18:13:52.298Z,100896.16
2023-05-05T18:16:23.028Z,100895.75
2023-05-05T18:19:01.721Z,100892.50
2023-05-05T18:21:37.532Z,100888.47
2023-05-05T18:24:20.041Z,100888.03
2023-05-05T18:27:03.184Z,100888.03
2023-05-05T18:29:36.096Z,100884.03
2023-05-05T18:32:06.891Z,100883.19
2023-05-05T18:34:42.202Z,100886.84
2023-05-05T18:37:23.137Z,100886.44
2023-05-05T18:39:58.339Z,100885.22
2023-05-05T18:42:34.736Z,100891.34
2023-05-05T18:45:06.470Z,100896.59
2023-05-05T18:47:50.625Z,100895.78
2023-05-05T18:50:24.568Z,100893.75
2023-05-05T18:52:55.894Z,100901.88
2023-05-05T18:55:31.274Z,100899.03
2023-05-05T18:58:05.653Z,100896.59
2023-05-05T19:00:38.869Z,100904.72
2023-05-05T19:03:14.975Z,100901.88
2023-05-05T19:05:47.138Z,100904.28
2023-05-05T19:08:30.621Z,100905.56
2023-05-05T19:11:00.411Z,100905.94
2023-05-05T19:13:41.867Z,100906.75
2023-05-05T19:16:21.146Z,100903.13
2023-05-05T19:18:54.604Z,100905.59
2023-05-05T19:21:56.487Z,100905.94
2023-05-05T19:24:26.695Z,100914.47
2023-05-05T19:27:02.201Z,100902.31
2023-05-05T19:29:53.571Z,100913.66
2023-05-05T19:32:27.443Z,100908.41
2023-05-05T19:34:58.385Z,100919.34
2023-05-05T19:37:31.356Z,100908.78
2023-05-05T19:40:04.762Z,100914.91
2023-05-05T19:42:40.277Z,100914.09
2023-05-05T19:45:13.993Z,100908.00
2023-05-05T19:47:49.860Z,100905.94
2023-05-05T19:50:26.744Z,100913.66
2023-05-05T19:53:07.976Z,100907.19
2023-05-05T19:55:46.048Z,100903.94
2023-05-05T19:58:24.515Z,100906.41
2023-05-05T20:00:57.823Z,100914.91
2023-05-05T20:03:35.726Z,100918.19
2023-05-05T20:06:06.488Z,100918.56
2023-05-05T20:08:43.212Z,100921.03
2023-05-05T20:11:18.305Z,100914.16
2023-05-05T20:13:57.940Z,100920.63
2023-05-05T20:16:25.905Z,100922.25
2023-05-05T20:19:05.321Z,100927.97
2023-05-05T20:21:41.403Z,100925.94
2023-05-05T20:24:11.857Z,100921.47
2023-05-05T20:26:54.041Z,100928.78
2023-05-05T20:29:25.036Z,100931.22
2023-05-05T20:31:58.295Z,100929.97
2023-05-05T20:34:39.398Z,100929.19
2023-05-05T20:37:11.722Z,100935.69
2023-05-05T20:39:47.338Z,100930.03
2023-05-05T20:42:20.649Z,100926.38
2023-05-05T20:44:56.815Z,100925.97
2023-05-05T20:47:29.785Z,100928.00
2023-05-05T20:50:03.348Z,100928.78
2023-05-05T20:52:45.824Z,100928.41
2023-05-05T20:55:22.525Z,100921.09
2023-05-05T20:57:54.754Z,100922.75
2023-05-05T21:00:31.536Z,100919.50
2023-05-05T21:03:12.766Z,100920.31
2023-05-05T21:05:47.847Z,100918.28
2023-05-05T21:08:23.506Z,100923.56
2023-05-05T21:11:06.976Z,100926.44
2023-05-05T21:13:42.813Z,100926.81
2023-05-05T21:16:24.398Z,100926.81
2023-05-05T21:18:57.140Z,100923.16
2023-05-05T21:21:32.301Z,100928.44
2023-05-05T21:24:10.745Z,100938.59
2023-05-05T21:26:54.650Z,100933.31
2023-05-05T21:29:25.436Z,100945.91
2023-05-05T21:32:03.091Z,100943.47
2023-05-05T21:34:38.836Z,100943.47
2023-05-05T21:37:12.248Z,100942.28
2023-05-05T21:39:45.184Z,100942.66
2023-05-05T21:42:20.492Z,100939.00
2023-05-05T21:44:57.072Z,100939.00
2023-05-05T21:47:35.359Z,100938.22
2023-05-05T21:50:12.284Z,100930.09
2023-05-05T21:52:47.055Z,100925.63
2023-05-05T21:55:17.682Z,100924.03
2023-05-05T21:57:52.886Z,100934.16
2023-05-05T22:00:24.764Z,100926.47
2023-05-05T22:03:00.368Z,100916.31
2023-05-05T22:05:37.004Z,100910.66
2023-05-05T22:08:11.346Z,100917.94
2023-05-05T22:10:47.561Z,100912.69
2023-05-05T22:13:19.662Z,100914.69
2023-05-05T22:15:59.880Z,100914.69
2023-05-05T22:18:32.366Z,100915.56
2023-05-05T22:21:11.029Z,100921.59
2023-05-05T22:23:41.375Z,100922.41
2023-05-05T22:26:19.322Z,100923.63
2023-05-05T22:28:51.618Z,100920.38
2023-05-05T22:31:26.969Z,100914.31
2023-05-05T22:34:03.918Z,100917.97
2023-05-05T22:36:37.165Z,100911.88
2023-05-05T22:39:23.005Z,100913.91
2023-05-05T22:42:01.778Z,100905.41
2023-05-05T22:44:38.596Z,100911.06
2023-05-05T22:47:11.655Z,100917.56
2023-05-05T22:49:52.302Z,100915.16
2023-05-05T22:52:30.606Z,100911.50
2023-05-05T22:55:08.720Z,100912.72
2023-05-05T22:57:44.680Z,100915.56
2023-05-05T23:00:23.094Z,100907.84
2023-05-05T23:02:56.476Z,100910.69
2023-05-05T23:05:27.868Z,100916.75
2023-05-05T23:08:00.585Z,100909.03
2023-05-05T23:10:29.550Z,100910.69
2023-05-05T23:13:04.842Z,100917.19
2023-05-05T23:15:41.238Z,100915.97
2023-05-05T23:18:14.643Z,100902.59
2023-05-05T23:20:48.073Z,100903.38
2023-05-05T23:23:26.103Z,100904.19
2023-05-05T23:26:00.920Z,100902.16
2023-05-05T23:28:37.222Z,100909.47
2023-05-05T23:31:13.552Z,100903.78
2023-05-05T23:33:54.544Z,100905.00
2023-05-05T23:36:33.606Z,100907.84
2023-05-05T23:39:07.536Z,100904.63
2023-05-05T23:41:40.554Z,100903.38
2023-05-05T23:44:15.901Z,100898.53
2023-05-05T23:46:45.463Z,100896.13
2023-05-05T23:49:26.058Z,100898.97
2023-05-05T23:51:58.576Z,100896.13
2023-05-05T23:54:31.872Z,100893.28
2023-05-05T23:57:07.670Z,100886.78
2023-05-05T23:59:45.203Z,100883.94
